createdAt,value
2018-07-27T00:00:31.653Z,0.00
2018-07-27T00:01:31.649Z,0.00
2018-07-27T00:02:31.634Z,0.00
2018-07-27T00:03:31.925Z,0.00
2018-07-27T00:04:31.616Z,0.00
2018-07-27T00:05:31.605Z,0.00
2018-07-27T00:06:31.595Z,0.00
2018-07-27T00:07:31.586Z,0.00
2018-07-27T00:08:31.576Z,0.00
2018-07-27T00:09:31.865Z,0.00
2018-07-27T00:10:31.557Z,0.00
2018-07-27T00:11:31.547Z,0.00
2018-07-27T00:12:31.538Z,0.00
2018-07-27T00:13:31.527Z,0.00
2018-07-27T00:14:31.513Z,0.00
2018-07-27T00:15:31.555Z,0.00
2018-07-27T00:16:31.797Z,0.00
2018-07-27T00:17:31.486Z,0.00
2018-07-27T00:18:31.476Z,0.00
2018-07-27T00:19:31.465Z,0.00
2018-07-27T00:20:31.456Z,0.00
2018-07-27T00:21:31.496Z,0.00
2018-07-27T00:22:31.437Z,0.00
2018-07-27T00:23:31.726Z,0.00
2018-07-27T00:24:31.416Z,0.00
2018-07-27T00:25:31.405Z,0.00
2018-07-27T00:26:31.395Z,0.00
2018-07-27T00:27:31.433Z,0.00
2018-07-27T00:28:31.376Z,0.00
2018-07-27T00:29:31.364Z,0.00
2018-07-27T00:30:31.654Z,0.00
2018-07-27T00:31:31.346Z,0.00
2018-07-27T00:32:31.336Z,0.00
2018-07-27T00:33:31.376Z,0.00
2018-07-27T00:34:31.314Z,0.00
2018-07-27T00:35:31.306Z,0.00
2018-07-27T00:36:31.294Z,0.00
2018-07-27T00:37:31.590Z,0.00
2018-07-27T00:38:31.273Z,0.00
2018-07-27T00:39:31.314Z,0.00
2018-07-27T00:40:31.254Z,0.00
2018-07-27T00:41:31.242Z,0.00
2018-07-27T00:42:31.233Z,0.00
2018-07-27T00:43:31.223Z,0.00
2018-07-27T00:44:31.517Z,0.00
2018-07-27T00:45:31.406Z,0.00
2018-07-27T00:46:31.190Z,0.00
2018-07-27T00:47:31.181Z,0.00
2018-07-27T00:48:31.172Z,0.00
2018-07-27T00:49:31.161Z,0.00
2018-07-27T00:50:31.152Z,0.00
2018-07-27T00:51:31.447Z,0.00
2018-07-27T00:52:31.132Z,0.00
2018-07-27T00:53:31.120Z,0.00
2018-07-27T00:54:31.111Z,0.00
2018-07-27T00:55:31.100Z,0.00
2018-07-27T00:56:31.089Z,0.00
2018-07-27T00:57:31.131Z,0.00
2018-07-27T00:58:31.372Z,0.00
2018-07-27T00:59:31.059Z,0.00
2018-07-27T01:00:31.051Z,0.00
2018-07-27T01:01:31.040Z,0.00
2018-07-27T01:02:31.030Z,0.00
2018-07-27T01:03:31.071Z,0.00
2018-07-27T01:04:31.311Z,0.00
2018-07-27T01:05:30.997Z,0.00
2018-07-27T01:06:30.991Z,0.00
2018-07-27T01:07:30.977Z,0.00
2018-07-27T01:08:30.967Z,0.00
2018-07-27T01:09:31.005Z,0.00
2018-07-27T01:10:31.248Z,0.00
2018-07-27T01:11:30.936Z,0.00
2018-07-27T01:12:30.924Z,0.00
2018-07-27T01:13:30.914Z,0.00
2018-07-27T01:14:30.901Z,0.00
2018-07-27T01:15:30.941Z,0.00
2018-07-27T01:16:31.183Z,0.00
2018-07-27T01:17:30.870Z,0.00
2018-07-27T01:18:30.860Z,0.00
2018-07-27T01:19:30.849Z,0.00
2018-07-27T01:20:30.841Z,0.00
2018-07-27T01:21:30.887Z,0.00
2018-07-27T01:22:31.119Z,0.00
2018-07-27T01:23:30.808Z,0.00
2018-07-27T01:24:30.798Z,0.00
2018-07-27T01:25:30.786Z,0.00
2018-07-27T01:26:30.775Z,0.00
2018-07-27T01:27:30.815Z,0.00
2018-07-27T01:28:31.057Z,0.00
2018-07-27T01:29:30.748Z,0.00
2018-07-27T01:30:30.733Z,0.00
2018-07-27T01:31:30.724Z,0.00
2018-07-27T01:32:30.711Z,0.00
2018-07-27T01:33:30.755Z,0.00
2018-07-27T01:34:30.990Z,0.00
2018-07-27T01:35:30.741Z,0.00
2018-07-27T01:36:30.668Z,0.00
2018-07-27T01:37:30.658Z,0.00
2018-07-27T01:38:30.650Z,0.00
2018-07-27T01:39:30.685Z,0.00
2018-07-27T01:40:30.927Z,0.00
2018-07-27T01:41:30.618Z,0.00
2018-07-27T01:42:30.605Z,0.00
2018-07-27T01:43:30.609Z,0.00
2018-07-27T01:44:30.583Z,0.00
2018-07-27T01:45:30.624Z,0.00
2018-07-27T01:46:30.563Z,0.00
2018-07-27T01:47:30.851Z,0.00
2018-07-27T01:48:30.540Z,0.00
2018-07-27T01:49:30.530Z,0.00
2018-07-27T01:50:30.517Z,0.00
2018-07-27T01:51:30.560Z,0.00
2018-07-27T01:52:30.496Z,0.00
2018-07-27T01:53:30.488Z,0.00
2018-07-27T01:54:30.777Z,0.00
2018-07-27T01:55:30.463Z,0.00
2018-07-27T01:56:30.453Z,0.00
2018-07-27T01:57:30.495Z,0.00
2018-07-27T01:58:30.429Z,0.00
2018-07-27T01:59:30.421Z,0.00
2018-07-27T02:00:30.412Z,0.00
2018-07-27T02:01:30.699Z,0.00
2018-07-27T02:02:30.387Z,0.00
2018-07-27T02:03:30.427Z,0.00
2018-07-27T02:04:30.369Z,0.00
2018-07-27T02:05:30.355Z,0.00
2018-07-27T02:06:30.343Z,0.00
2018-07-27T02:07:30.331Z,0.00
2018-07-27T02:08:30.624Z,0.00
2018-07-27T02:09:30.363Z,0.00
2018-07-27T02:10:30.299Z,0.00
2018-07-27T02:11:30.288Z,0.00
2018-07-27T02:12:30.279Z,0.00
2018-07-27T02:13:30.267Z,0.00
2018-07-27T02:14:30.256Z,0.00
2018-07-27T02:15:30.544Z,0.00
2018-07-27T02:16:30.232Z,0.00
2018-07-27T02:17:30.224Z,0.00
2018-07-27T02:18:30.213Z,0.00
2018-07-27T02:19:30.201Z,0.00
2018-07-27T02:20:30.189Z,0.00
2018-07-27T02:21:30.228Z,0.00
2018-07-27T02:22:30.470Z,0.00
2018-07-27T02:23:30.190Z,0.00
2018-07-27T02:24:30.147Z,0.00
2018-07-27T02:25:30.134Z,0.00
2018-07-27T02:26:30.124Z,0.00
2018-07-27T02:27:30.164Z,0.00
2018-07-27T02:28:30.101Z,0.00
2018-07-27T02:29:30.390Z,0.00
2018-07-27T02:30:30.079Z,0.00
2018-07-27T02:31:30.067Z,0.00
2018-07-27T02:32:30.063Z,0.00
2018-07-27T02:33:30.095Z,0.00
2018-07-27T02:34:30.035Z,0.00
2018-07-27T02:35:30.324Z,0.00
2018-07-27T02:36:30.018Z,0.00
2018-07-27T02:37:30.008Z,0.00
2018-07-27T02:38:29.991Z,0.00
2018-07-27T02:39:30.034Z,0.00
2018-07-27T02:40:29.972Z,0.00
2018-07-27T02:41:30.257Z,0.00
2018-07-27T02:42:29.943Z,0.00
2018-07-27T02:43:29.933Z,0.00
2018-07-27T02:44:29.921Z,0.00
2018-07-27T02:45:29.960Z,0.00
2018-07-27T02:46:29.899Z,0.00
2018-07-27T02:47:30.197Z,0.00
2018-07-27T02:48:29.877Z,4.00
2018-07-27T02:49:29.866Z,4.00
2018-07-27T02:50:29.853Z,4.00
2018-07-27T02:51:29.977Z,0.00
2018-07-27T02:52:29.833Z,4.00
2018-07-27T02:53:30.120Z,4.00
2018-07-27T02:54:29.808Z,0.00
2018-07-27T02:55:29.797Z,4.00
2018-07-27T02:56:29.787Z,4.00
2018-07-27T02:57:29.829Z,4.00
2018-07-27T02:58:29.765Z,8.00
2018-07-27T02:59:30.055Z,8.00
2018-07-27T03:00:29.741Z,4.00
2018-07-27T03:01:29.734Z,8.00
2018-07-27T03:02:29.718Z,12.00
2018-07-27T03:03:29.756Z,12.00
2018-07-27T03:04:29.694Z,12.00
2018-07-27T03:05:29.992Z,16.00
2018-07-27T03:06:29.675Z,16.00
2018-07-27T03:07:29.661Z,20.00
2018-07-27T03:08:29.651Z,20.00
2018-07-27T03:09:29.689Z,28.00
2018-07-27T03:10:29.628Z,28.00
2018-07-27T03:11:29.916Z,32.00
2018-07-27T03:12:29.604Z,32.00
2018-07-27T03:13:29.592Z,40.00
2018-07-27T03:14:29.581Z,40.00
2018-07-27T03:15:29.624Z,48.00
2018-07-27T03:16:29.558Z,52.00
2018-07-27T03:17:29.856Z,60.00
2018-07-27T03:18:29.536Z,68.00
2018-07-27T03:19:29.522Z,72.00
2018-07-27T03:20:29.512Z,76.00
2018-07-27T03:21:29.552Z,84.00
2018-07-27T03:22:29.489Z,96.00
2018-07-27T03:23:29.488Z,104.00
2018-07-27T03:24:29.767Z,116.00
2018-07-27T03:25:29.461Z,124.00
2018-07-27T03:26:29.446Z,132.00
2018-07-27T03:27:29.480Z,144.00
2018-07-27T03:28:29.469Z,156.00
2018-07-27T03:29:29.410Z,168.00
2018-07-27T03:30:29.396Z,180.00
2018-07-27T03:31:29.695Z,192.00
2018-07-27T03:32:29.376Z,208.00
2018-07-27T03:33:29.412Z,220.00
2018-07-27T03:34:29.348Z,232.00
2018-07-27T03:35:29.338Z,248.00
2018-07-27T03:36:29.329Z,264.00
2018-07-27T03:37:29.316Z,276.00
2018-07-27T03:38:29.602Z,296.00
2018-07-27T03:39:29.341Z,308.00
2018-07-27T03:40:29.281Z,328.00
2018-07-27T03:41:29.270Z,344.00
2018-07-27T03:42:29.257Z,360.00
2018-07-27T03:43:29.244Z,376.00
2018-07-27T03:44:29.232Z,392.00
2018-07-27T03:45:29.522Z,408.00
2018-07-27T03:46:29.208Z,424.00
2018-07-27T03:47:29.197Z,444.00
2018-07-27T03:48:29.187Z,464.00
2018-07-27T03:49:29.176Z,480.00
2018-07-27T03:50:29.161Z,500.00
2018-07-27T03:51:29.203Z,516.00
2018-07-27T03:52:29.437Z,532.00
2018-07-27T03:53:29.128Z,548.00
2018-07-27T03:54:29.115Z,568.00
2018-07-27T03:55:29.103Z,584.00
2018-07-27T03:56:29.091Z,604.00
2018-07-27T03:57:29.131Z,624.00
2018-07-27T03:58:29.071Z,636.00
2018-07-27T03:59:29.359Z,656.00
2018-07-27T04:00:29.045Z,672.00
2018-07-27T04:01:29.046Z,692.00
2018-07-27T04:02:29.022Z,708.00
2018-07-27T04:03:29.057Z,720.00
2018-07-27T04:04:28.999Z,740.00
2018-07-27T04:05:28.985Z,752.00
2018-07-27T04:06:29.273Z,772.00
2018-07-27T04:07:28.964Z,784.00
2018-07-27T04:08:29.003Z,800.00
2018-07-27T04:09:28.993Z,816.00
2018-07-27T04:10:28.929Z,832.00
2018-07-27T04:11:28.916Z,844.00
2018-07-27T04:12:29.202Z,860.00
2018-07-27T04:13:28.890Z,876.00
2018-07-27T04:14:28.880Z,888.00
2018-07-27T04:15:28.917Z,904.00
2018-07-27T04:16:28.854Z,916.00
2018-07-27T04:17:28.843Z,932.00
2018-07-27T04:18:29.135Z,944.00
2018-07-27T04:19:28.819Z,956.00
2018-07-27T04:20:28.807Z,972.00
2018-07-27T04:21:28.848Z,980.00
2018-07-27T04:22:28.823Z,996.00
2018-07-27T04:23:28.775Z,1008.00
2018-07-27T04:24:29.062Z,1020.00
2018-07-27T04:25:28.748Z,1028.00
2018-07-27T04:26:28.736Z,1040.00
2018-07-27T04:27:28.775Z,1056.00
2018-07-27T04:28:28.716Z,1068.00
2018-07-27T04:29:28.701Z,1084.00
2018-07-27T04:30:28.989Z,1096.00
2018-07-27T04:31:28.679Z,1108.00
2018-07-27T04:32:28.665Z,1120.00
2018-07-27T04:33:28.704Z,1128.00
2018-07-27T04:34:28.644Z,1144.00
2018-07-27T04:35:28.627Z,1156.00
2018-07-27T04:36:28.919Z,1168.00
2018-07-27T04:37:28.604Z,1176.00
2018-07-27T04:38:28.594Z,1184.00
2018-07-27T04:39:28.633Z,1196.00
2018-07-27T04:40:28.570Z,1208.00
2018-07-27T04:41:28.560Z,1216.00
2018-07-27T04:42:28.847Z,1224.00
2018-07-27T04:43:28.536Z,1232.00
2018-07-27T04:44:28.525Z,1236.00
2018-07-27T04:45:28.562Z,1244.00
2018-07-27T04:46:28.499Z,1256.00
2018-07-27T04:47:28.489Z,1268.00
2018-07-27T04:48:28.777Z,1276.00
2018-07-27T04:49:28.524Z,1284.00
2018-07-27T04:50:28.452Z,1292.00
2018-07-27T04:51:28.490Z,1300.00
2018-07-27T04:52:28.431Z,1312.00
2018-07-27T04:53:28.418Z,1316.00
2018-07-27T04:54:28.406Z,1328.00
2018-07-27T04:55:28.694Z,1336.00
2018-07-27T04:56:28.390Z,1344.00
2018-07-27T04:57:28.421Z,1352.00
2018-07-27T04:58:28.357Z,1352.00
2018-07-27T04:59:28.348Z,1360.00
2018-07-27T05:00:28.332Z,1364.00
2018-07-27T05:01:28.322Z,1372.00
2018-07-27T05:02:28.610Z,1380.00
2018-07-27T05:03:28.349Z,1384.00
2018-07-27T05:04:28.287Z,1388.00
2018-07-27T05:05:28.276Z,1392.00
2018-07-27T05:06:28.264Z,1400.00
2018-07-27T05:07:28.253Z,1404.00
2018-07-27T05:08:28.241Z,1408.00
2018-07-27T05:09:28.531Z,1412.00
2018-07-27T05:10:28.218Z,1420.00
2018-07-27T05:11:28.204Z,1428.00
2018-07-27T05:12:28.196Z,1428.00
2018-07-27T05:13:28.182Z,1432.00
2018-07-27T05:14:28.170Z,1444.00
2018-07-27T05:15:28.210Z,1448.00
2018-07-27T05:16:28.450Z,1452.00
2018-07-27T05:17:28.139Z,1456.00
2018-07-27T05:18:28.125Z,1468.00
2018-07-27T05:19:28.118Z,1472.00
2018-07-27T05:20:28.152Z,1480.00
2018-07-27T05:21:28.142Z,1484.00
2018-07-27T05:22:28.081Z,1484.00
2018-07-27T05:23:28.371Z,1496.00
2018-07-27T05:24:28.057Z,1496.00
2018-07-27T05:25:28.045Z,1508.00
2018-07-27T05:26:28.033Z,1516.00
2018-07-27T05:27:28.073Z,1520.00
2018-07-27T05:28:28.017Z,1528.00
2018-07-27T05:29:27.998Z,1536.00
2018-07-27T05:30:28.289Z,1544.00
2018-07-27T05:31:27.977Z,1548.00
2018-07-27T05:32:27.968Z,1552.00
2018-07-27T05:33:28.005Z,1560.00
2018-07-27T05:34:27.998Z,1568.00
2018-07-27T05:35:27.941Z,1576.00
2018-07-27T05:36:27.921Z,1576.00
2018-07-27T05:37:28.222Z,1584.00
2018-07-27T05:38:27.908Z,1592.00
2018-07-27T05:39:27.935Z,1596.00
2018-07-27T05:40:27.919Z,1604.00
2018-07-27T05:41:27.934Z,1608.00
2018-07-27T05:42:27.853Z,1620.00
2018-07-27T05:43:28.141Z,1620.00
2018-07-27T05:44:27.832Z,1628.00
2018-07-27T05:45:27.872Z,1592.00
2018-07-27T05:46:27.812Z,1628.00
2018-07-27T05:47:27.814Z,1632.00
2018-07-27T05:48:27.786Z,1644.00
2018-07-27T05:49:28.078Z,1652.00
2018-07-27T05:50:27.765Z,1656.00
2018-07-27T05:51:27.805Z,1664.00
2018-07-27T05:52:27.743Z,1668.00
2018-07-27T05:53:27.733Z,1676.00
2018-07-27T05:54:27.763Z,1676.00
2018-07-27T05:55:28.014Z,1720.00
2018-07-27T05:56:27.700Z,1724.00
2018-07-27T05:57:27.813Z,1728.00
2018-07-27T05:58:27.680Z,1736.00
2018-07-27T05:59:27.685Z,1748.00
2018-07-27T06:00:27.657Z,1748.00
2018-07-27T06:01:27.952Z,1756.00
2018-07-27T06:02:27.633Z,1760.00
2018-07-27T06:03:27.686Z,1768.00
2018-07-27T06:04:27.645Z,1772.00
2018-07-27T06:05:27.606Z,1776.00
2018-07-27T06:06:27.592Z,1776.00
2018-07-27T06:07:27.909Z,1776.00
2018-07-27T06:08:27.574Z,1796.00
2018-07-27T06:09:27.611Z,1800.00
2018-07-27T06:10:27.552Z,1804.00
2018-07-27T06:11:27.542Z,1812.00
2018-07-27T06:12:27.582Z,1820.00
2018-07-27T06:13:27.829Z,1828.00
2018-07-27T06:14:27.540Z,1824.00
2018-07-27T06:15:27.554Z,1832.00
2018-07-27T06:16:27.494Z,1836.00
2018-07-27T06:17:27.495Z,1840.00
2018-07-27T06:18:27.471Z,1848.00
2018-07-27T06:19:27.760Z,1848.00
2018-07-27T06:20:27.461Z,1860.00
2018-07-27T06:21:27.537Z,1860.00
2018-07-27T06:22:27.425Z,1864.00
2018-07-27T06:23:27.418Z,1868.00
2018-07-27T06:24:27.491Z,1876.00
2018-07-27T06:25:27.399Z,1876.00
2018-07-27T06:26:27.684Z,1880.00
2018-07-27T06:27:27.438Z,1884.00
2018-07-27T06:28:27.363Z,1884.00
2018-07-27T06:29:27.355Z,1896.00
2018-07-27T06:30:27.357Z,1900.00
2018-07-27T06:31:27.335Z,1904.00
2018-07-27T06:32:27.624Z,1908.00
2018-07-27T06:33:27.364Z,1920.00
2018-07-27T06:34:27.302Z,1916.00
2018-07-27T06:35:27.294Z,1916.00
2018-07-27T06:36:27.293Z,1932.00
2018-07-27T06:37:27.277Z,1932.00
2018-07-27T06:38:27.562Z,1932.00
2018-07-27T06:39:27.304Z,1940.00
2018-07-27T06:40:27.284Z,1944.00
2018-07-27T06:41:27.236Z,1948.00
2018-07-27T06:42:27.227Z,1956.00
2018-07-27T06:43:27.214Z,1960.00
2018-07-27T06:44:27.511Z,1964.00
2018-07-27T06:45:27.252Z,1968.00
2018-07-27T06:46:27.186Z,1980.00
2018-07-27T06:47:27.173Z,1984.00
2018-07-27T06:48:27.163Z,1992.00
2018-07-27T06:49:27.177Z,1996.00
2018-07-27T06:50:27.444Z,2000.00
2018-07-27T06:51:27.192Z,2004.00
2018-07-27T06:52:27.185Z,2004.00
2018-07-27T06:53:27.116Z,2008.00
2018-07-27T06:54:27.103Z,2012.00
2018-07-27T06:55:27.096Z,2016.00
2018-07-27T06:56:27.406Z,2020.00
2018-07-27T06:57:27.125Z,2032.00
2018-07-27T06:58:27.066Z,2036.00
2018-07-27T06:59:27.056Z,2044.00
2018-07-27T07:00:27.044Z,2048.00
2018-07-27T07:01:27.038Z,2052.00
2018-07-27T07:02:27.402Z,2068.00
2018-07-27T07:03:27.083Z,2072.00
2018-07-27T07:04:27.013Z,2080.00
2018-07-27T07:05:27.045Z,2084.00
2018-07-27T07:06:26.988Z,2092.00
2018-07-27T07:07:26.985Z,2100.00
2018-07-27T07:08:26.971Z,2112.00
2018-07-27T07:09:27.264Z,2120.00
2018-07-27T07:10:26.992Z,2128.00
2018-07-27T07:11:26.945Z,2136.00
2018-07-27T07:12:26.929Z,2136.00
2018-07-27T07:13:26.920Z,2148.00
2018-07-27T07:14:26.953Z,2152.00
2018-07-27T07:15:26.953Z,2160.00
2018-07-27T07:16:27.190Z,2168.00
2018-07-27T07:17:26.885Z,2176.00
2018-07-27T07:18:26.872Z,2212.00
2018-07-27T07:19:26.862Z,2196.00
2018-07-27T07:20:26.853Z,2212.00
2018-07-27T07:21:26.894Z,2220.00
2018-07-27T07:22:26.837Z,2228.00
2018-07-27T07:23:27.124Z,2224.00
2018-07-27T07:24:26.818Z,2244.00
2018-07-27T07:25:26.917Z,2284.00
2018-07-27T07:26:26.803Z,2320.00
2018-07-27T07:27:26.874Z,2348.00
2018-07-27T07:28:26.779Z,2372.00
2018-07-27T07:29:27.070Z,2392.00
2018-07-27T07:30:26.760Z,2424.00
2018-07-27T07:31:26.750Z,2440.00
2018-07-27T07:32:26.742Z,2488.00
2018-07-27T07:33:26.782Z,2592.00
2018-07-27T07:34:26.724Z,2696.00
2018-07-27T07:35:27.017Z,2768.00
2018-07-27T07:36:26.705Z,2820.00
2018-07-27T07:37:26.695Z,2884.00
2018-07-27T07:38:26.747Z,2944.00
2018-07-27T07:39:26.727Z,2952.00
2018-07-27T07:40:26.670Z,2956.00
2018-07-27T07:41:26.960Z,2964.00
2018-07-27T07:42:26.655Z,2996.00
2018-07-27T07:43:26.645Z,2988.00
2018-07-27T07:44:26.635Z,2980.00
2018-07-27T07:45:26.679Z,2972.00
2018-07-27T07:46:26.662Z,2992.00
2018-07-27T07:47:26.907Z,2996.00
2018-07-27T07:48:26.604Z,3008.00
2018-07-27T07:49:26.664Z,3032.00
2018-07-27T07:50:26.583Z,3052.00
2018-07-27T07:51:26.626Z,3072.00
2018-07-27T07:52:26.568Z,3088.00
2018-07-27T07:53:26.613Z,3084.00
2018-07-27T07:54:26.851Z,3092.00
2018-07-27T07:55:26.546Z,3080.00
2018-07-27T07:56:26.538Z,3096.00
2018-07-27T07:57:26.576Z,3112.00
2018-07-27T07:58:26.524Z,3132.00
2018-07-27T07:59:26.513Z,3136.00
2018-07-27T08:00:26.804Z,3156.00
2018-07-27T08:01:26.496Z,3180.00
2018-07-27T08:02:26.526Z,3180.00
2018-07-27T08:03:26.530Z,3184.00
2018-07-27T08:04:26.488Z,3232.00
2018-07-27T08:05:26.511Z,3244.00
2018-07-27T08:06:26.765Z,3260.00
2018-07-27T08:07:26.451Z,3308.00
2018-07-27T08:08:26.451Z,3244.00
2018-07-27T08:09:26.497Z,3360.00
2018-07-27T08:10:26.429Z,3368.00
2018-07-27T08:11:26.433Z,3412.00
2018-07-27T08:12:26.716Z,3476.00
2018-07-27T08:13:26.408Z,3528.00
2018-07-27T08:14:26.426Z,3448.00
2018-07-27T08:15:26.497Z,3432.00
2018-07-27T08:16:26.389Z,3420.00
2018-07-27T08:17:26.384Z,3444.00
2018-07-27T08:18:26.673Z,3440.00
2018-07-27T08:19:26.368Z,3448.00
2018-07-27T08:20:26.359Z,3456.00
2018-07-27T08:21:26.411Z,3496.00
2018-07-27T08:22:26.345Z,3496.00
2018-07-27T08:23:26.337Z,3484.00
2018-07-27T08:24:26.649Z,3500.00
2018-07-27T08:25:26.327Z,3556.00
2018-07-27T08:26:26.324Z,3584.00
2018-07-27T08:27:26.364Z,3636.00
2018-07-27T08:28:26.306Z,3704.00
2018-07-27T08:29:26.302Z,3724.00
2018-07-27T08:30:26.592Z,3800.00
2018-07-27T08:31:26.289Z,3832.00
2018-07-27T08:32:26.283Z,3892.00
2018-07-27T08:33:26.334Z,3884.00
2018-07-27T08:34:26.268Z,3884.00
2018-07-27T08:35:26.263Z,3920.00
2018-07-27T08:36:26.557Z,3984.00
2018-07-27T08:37:26.251Z,3996.00
2018-07-27T08:38:26.256Z,4040.00
2018-07-27T08:39:26.290Z,4108.00
2018-07-27T08:40:26.240Z,4220.00
2018-07-27T08:41:26.237Z,4060.00
2018-07-27T08:42:26.531Z,4080.00
2018-07-27T08:43:26.232Z,4084.00
2018-07-27T08:44:26.209Z,4132.00
2018-07-27T08:45:26.254Z,4268.00
2018-07-27T08:46:26.204Z,4364.00
2018-07-27T08:47:26.200Z,4416.00
2018-07-27T08:48:26.498Z,4424.00
2018-07-27T08:49:26.185Z,4424.00
2018-07-27T08:50:26.182Z,4408.00
2018-07-27T08:51:26.224Z,4452.00
2018-07-27T08:52:26.166Z,4552.00
2018-07-27T08:53:26.163Z,4440.00
2018-07-27T08:54:26.457Z,4524.00
2018-07-27T08:55:26.150Z,4596.00
2018-07-27T08:56:26.257Z,4556.00
2018-07-27T08:57:26.192Z,4584.00
2018-07-27T08:58:26.138Z,4636.00
2018-07-27T08:59:26.142Z,4696.00
2018-07-27T09:00:26.137Z,4572.00
2018-07-27T09:01:26.431Z,4732.00
2018-07-27T09:02:26.119Z,4688.00
2018-07-27T09:03:26.165Z,4904.00
2018-07-27T09:04:26.108Z,4920.00
2018-07-27T09:05:26.106Z,4928.00
2018-07-27T09:06:26.102Z,4948.00
2018-07-27T09:07:26.396Z,4952.00
2018-07-27T09:08:26.149Z,4932.00
2018-07-27T09:09:26.139Z,4944.00
2018-07-27T09:10:26.083Z,5024.00
2018-07-27T09:11:26.083Z,5064.00
2018-07-27T09:12:26.078Z,5224.00
2018-07-27T09:13:26.073Z,5236.00
2018-07-27T09:14:26.387Z,5304.00
2018-07-27T09:15:26.135Z,5376.00
2018-07-27T09:16:26.064Z,5492.00
2018-07-27T09:17:26.131Z,5552.00
2018-07-27T09:18:26.060Z,5472.00
2018-07-27T09:19:26.055Z,5488.00
2018-07-27T09:20:26.352Z,5672.00
2018-07-27T09:21:26.098Z,5684.00
2018-07-27T09:22:26.041Z,5668.00
2018-07-27T09:23:26.038Z,5128.00
2018-07-27T09:24:26.098Z,5708.00
2018-07-27T09:25:26.246Z,5648.00
2018-07-27T09:26:26.330Z,5848.00
2018-07-27T09:27:26.075Z,5976.00
2018-07-27T09:28:26.022Z,6028.00
2018-07-27T09:29:26.021Z,6060.00
2018-07-27T09:30:26.019Z,6136.00
2018-07-27T09:31:26.018Z,6088.00
2018-07-27T09:32:26.323Z,6060.00
2018-07-27T09:33:26.063Z,6184.00
2018-07-27T09:34:26.009Z,6084.00
2018-07-27T09:35:26.034Z,6072.00
2018-07-27T09:36:26.004Z,6440.00
2018-07-27T09:37:26.006Z,6456.00
2018-07-27T09:38:26.303Z,6644.00
2018-07-27T09:39:26.048Z,6824.00
2018-07-27T09:40:26.035Z,6984.00
2018-07-27T09:41:25.996Z,7020.00
2018-07-27T09:42:25.992Z,7032.00
2018-07-27T09:43:25.995Z,7040.00
2018-07-27T09:44:26.290Z,7116.00
2018-07-27T09:45:26.090Z,7140.00
2018-07-27T09:46:26.050Z,7168.00
2018-07-27T09:47:25.984Z,7216.00
2018-07-27T09:48:25.988Z,7336.00
2018-07-27T09:49:25.981Z,7460.00
2018-07-27T09:50:26.280Z,7548.00
2018-07-27T09:51:26.031Z,7696.00
2018-07-27T09:52:25.999Z,7788.00
2018-07-27T09:53:25.980Z,8100.00
2018-07-27T09:54:25.979Z,8172.00
2018-07-27T09:55:25.977Z,8276.00
2018-07-27T09:56:25.978Z,8112.00
2018-07-27T09:57:26.304Z,8296.00
2018-07-27T09:58:25.976Z,8432.00
2018-07-27T09:59:25.971Z,8564.00
2018-07-27T10:00:25.972Z,8664.00
2018-07-27T10:01:25.976Z,8720.00
2018-07-27T10:02:25.972Z,8716.00
2018-07-27T10:03:26.271Z,8656.00
2018-07-27T10:04:25.970Z,8864.00
2018-07-27T10:05:25.970Z,9168.00
2018-07-27T10:06:25.977Z,8332.00
2018-07-27T10:07:25.971Z,10200.00
2018-07-27T10:08:25.972Z,10060.00
2018-07-27T10:09:26.270Z,8836.00
2018-07-27T10:10:25.970Z,9812.00
2018-07-27T10:11:25.970Z,9248.00
2018-07-27T10:12:25.975Z,10088.00
2018-07-27T10:13:25.977Z,10384.00
2018-07-27T10:14:25.971Z,10908.00
2018-07-27T10:16:25.973Z,10840.00
2018-07-27T10:17:25.972Z,12060.00
2018-07-27T10:18:25.979Z,11828.00
2018-07-27T10:19:25.976Z,11888.00
2018-07-27T10:20:25.977Z,12304.00
2018-07-27T10:21:26.277Z,12372.00
2018-07-27T10:22:25.977Z,12300.00
2018-07-27T10:23:26.027Z,12072.00
2018-07-27T10:24:25.988Z,11596.00
2018-07-27T10:25:25.979Z,12140.00
2018-07-27T10:26:25.985Z,11892.00
2018-07-27T10:27:26.377Z,7924.00
2018-07-27T10:28:25.997Z,8844.00
2018-07-27T10:29:25.989Z,14160.00
2018-07-27T10:30:25.991Z,14852.00
2018-07-27T10:31:26.006Z,14836.00
2018-07-27T10:32:25.991Z,14920.00
2018-07-27T10:33:26.293Z,14864.00
2018-07-27T10:34:25.993Z,15172.00
2018-07-27T10:35:25.994Z,15128.00
2018-07-27T10:36:25.994Z,14240.00
2018-07-27T10:37:26.023Z,14312.00
2018-07-27T10:38:26.053Z,13784.00
2018-07-27T10:39:26.302Z,9056.00
2018-07-27T10:40:26.001Z,16672.00
2018-07-27T10:41:26.052Z,18336.00
2018-07-27T10:42:26.011Z,40832.00
2018-07-27T10:43:26.062Z,77600.00
2018-07-27T10:44:26.017Z,85696.00
2018-07-27T10:45:26.313Z,83968.00
2018-07-27T10:46:26.043Z,83424.00
2018-07-27T10:47:26.027Z,84448.00
2018-07-27T10:48:26.021Z,85600.00
2018-07-27T10:49:26.024Z,84352.00
2018-07-27T10:50:26.023Z,84672.00
2018-07-27T10:51:26.324Z,87808.00
2018-07-27T10:52:26.026Z,88416.00
2018-07-27T10:53:26.036Z,84960.00
2018-07-27T10:54:26.071Z,7776.00
2018-07-27T10:55:26.041Z,88896.00
2018-07-27T10:56:26.528Z,87680.00
2018-07-27T10:57:26.341Z,89184.00
2018-07-27T10:58:26.036Z,90464.00
2018-07-27T10:59:26.084Z,33408.00
2018-07-27T11:00:26.043Z,29216.00
2018-07-27T11:01:26.046Z,86592.00
2018-07-27T11:02:26.053Z,84928.00
2018-07-27T11:03:26.351Z,84000.00
2018-07-27T11:04:26.053Z,82720.00
2018-07-27T11:05:26.054Z,76352.00
2018-07-27T11:06:26.056Z,31776.00
2018-07-27T11:07:26.059Z,20064.00
2018-07-27T11:08:26.066Z,18912.00
2018-07-27T11:09:26.117Z,19232.00
2018-07-27T11:10:26.071Z,19616.00
2018-07-27T11:11:26.071Z,10304.00
2018-07-27T11:12:26.073Z,9408.00
2018-07-27T11:13:26.084Z,22688.00
2018-07-27T11:14:26.077Z,24192.00
2018-07-27T11:15:26.433Z,63168.00
2018-07-27T11:16:26.112Z,10948.00
2018-07-27T11:17:26.110Z,83648.00
2018-07-27T11:18:26.108Z,21088.00
2018-07-27T11:19:26.092Z,23424.00
2018-07-27T11:20:26.100Z,61536.00
2018-07-27T11:21:26.492Z,77568.00
2018-07-27T11:22:26.100Z,76768.00
2018-07-27T11:23:26.100Z,78016.00
2018-07-27T11:24:26.163Z,49120.00
2018-07-27T11:25:26.158Z,78880.00
2018-07-27T11:26:26.110Z,78368.00
2018-07-27T11:28:26.436Z,82112.00
2018-07-27T11:29:26.130Z,79552.00
2018-07-27T11:30:26.118Z,78080.00
2018-07-27T11:31:26.129Z,74656.00
2018-07-27T11:32:26.167Z,71296.00
2018-07-27T11:33:26.180Z,72928.00
2018-07-27T11:34:26.137Z,75328.00
2018-07-27T11:35:26.440Z,73184.00
2018-07-27T11:36:26.174Z,72992.00
2018-07-27T11:37:26.150Z,73120.00
2018-07-27T11:38:26.143Z,72576.00
2018-07-27T11:39:26.195Z,76256.00
2018-07-27T11:40:26.212Z,75616.00
2018-07-27T11:41:26.455Z,73184.00
2018-07-27T11:42:26.188Z,73248.00
2018-07-27T11:43:26.172Z,72320.00
2018-07-27T11:44:26.212Z,71008.00
2018-07-27T11:45:26.326Z,72864.00
2018-07-27T11:46:26.177Z,70080.00
2018-07-27T11:47:26.478Z,68800.00
2018-07-27T11:48:26.183Z,72480.00
2018-07-27T11:49:26.259Z,72736.00
2018-07-27T11:50:26.190Z,74240.00
2018-07-27T11:51:26.244Z,0.00
2018-07-27T11:52:26.228Z,70336.00
2018-07-27T11:53:26.508Z,72224.00
2018-07-27T11:54:26.212Z,72704.00
2018-07-27T11:55:26.214Z,71360.00
2018-07-27T11:56:26.219Z,70816.00
2018-07-27T11:57:26.275Z,67584.00
2018-07-27T11:58:26.274Z,65856.00
2018-07-27T11:59:26.536Z,65888.00
2018-07-27T12:00:26.249Z,67424.00
2018-07-27T12:01:26.243Z,65984.00
2018-07-27T12:02:26.248Z,67360.00
2018-07-27T12:03:26.411Z,52128.00
2018-07-27T12:04:26.259Z,92736.00
2018-07-27T12:05:26.621Z,65536.00
2018-07-27T12:06:26.267Z,12964.00
2018-07-27T12:07:26.275Z,70976.00
2018-07-27T12:08:26.278Z,71552.00
2018-07-27T12:09:26.336Z,74912.00
2018-07-27T12:10:26.297Z,75648.00
2018-07-27T12:11:26.298Z,73280.00
2018-07-27T12:12:26.603Z,72256.00
2018-07-27T12:13:26.307Z,74400.00
2018-07-27T12:14:26.644Z,74304.00
2018-07-27T12:15:26.390Z,72128.00
2018-07-27T12:16:26.320Z,72768.00
2018-07-27T12:17:26.383Z,73376.00
2018-07-27T12:18:26.330Z,73216.00
2018-07-27T12:19:26.645Z,18560.00
2018-07-27T12:20:26.368Z,16456.00
2018-07-27T12:21:26.460Z,76192.00
2018-07-27T12:22:26.356Z,72896.00
2018-07-27T12:23:26.358Z,68768.00